Time;durP1;ratioP1;P1;durP2;ratioP2;P2;SDS_P1;SDS_P2;PMS_P1;PMS_P2;Temp;Humidity;BMP_temperature;BMP_pressure;BME280_temperature;BME280_humidity;BME280_pressure;Samples;Min_cycle;Max_cycle;Signal;HPM_P1;HPM_P2
2023/01/09 00:00:09;;;;;;;17.52;11.73;;;;;;;;;;6247515;28;20049;-75
2023/01/09 00:03:10;;;;;;;15.33;12.00;;;;;;;;;;6251554;28;20273;-75
2023/01/09 00:06:13;;;;;;;14.38;10.32;;;;;;;;;;6247608;28;20104;-77
2023/01/09 00:09:15;;;;;;;25.70;15.68;;;;;;;;;;6245701;28;20057;-79
2023/01/09 00:12:16;;;;;;;134.45;68.82;;;;;;;;;;6251746;28;20099;-76
2023/01/09 00:15:18;;;;;;;133.77;72.30;;;;;;;;;;6250488;28;20210;-78
2023/01/09 00:18:20;;;;;;;89.53;48.33;;;;;;;;;;6248622;28;20119;-71
2023/01/09 00:21:23;;;;;;;43.88;27.25;;;;;;;;;;6252926;28;20057;-77
2023/01/09 00:24:25;;;;;;;96.13;47.90;;;;;;;;;;6250945;28;20370;-80
2023/01/09 00:27:26;;;;;;;42.90;25.45;;;;;;;;;;6250935;28;20057;-73
2023/01/09 00:30:28;;;;;;;20.60;13.65;;;;;;;;;;6249777;28;20104;-75
2023/01/09 00:33:32;;;;;;;16.95;11.57;;;;;;;;;;6250696;28;20281;-76
2023/01/09 00:36:34;;;;;;;14.47;10.50;;;;;;;;;;6246666;28;20054;-77
2023/01/09 00:39:36;;;;;;;15.38;11.20;;;;;;;;;;6252209;28;20041;-77
2023/01/09 00:42:38;;;;;;;17.92;13.07;;;;;;;;;;6248662;28;20069;-78
2023/01/09 00:45:40;;;;;;;21.48;15.70;;;;;;;;;;6251172;28;20056;-77
2023/01/09 00:48:42;;;;;;;22.42;16.83;;;;;;;;;;6250236;28;20053;-77
2023/01/09 00:51:45;;;;;;;24.50;16.42;;;;;;;;;;6253215;28;20080;-75
2023/01/09 00:54:47;;;;;;;22.48;15.77;;;;;;;;;;6245035;28;20057;-74
2023/01/09 00:57:49;;;;;;;25.20;17.50;;;;;;;;;;6249004;28;20065;-74
2023/01/09 01:00:50;;;;;;;24.92;17.80;;;;;;;;;;6244396;28;20391;-76
2023/01/09 01:03:52;;;;;;;21.75;15.48;;;;;;;;;;6247927;28;20052;-76
2023/01/09 01:10:19;;;;;;;23.67;15.82;;;;;;;;;;6246231;28;20073;-77
2023/01/09 01:13:20;;;;;;;21.05;15.10;;;;;;;;;;6248546;28;20073;-74
2023/01/09 01:16:22;;;;;;;21.40;14.38;;;;;;;;;;6249600;28;20054;-71
2023/01/09 01:19:23;;;;;;;20.98;14.90;;;;;;;;;;6249538;28;20166;-77
2023/01/09 01:22:27;;;;;;;20.65;14.65;;;;;;;;;;6246278;28;20049;-74
2023/01/09 01:25:28;;;;;;;21.33;14.57;;;;;;;;;;6248227;28;20249;-73
2023/01/09 01:28:30;;;;;;;21.58;14.27;;;;;;;;;;6247650;28;20063;-75
2023/01/09 01:31:32;;;;;;;17.55;12.43;;;;;;;;;;6247155;28;20108;-75
2023/01/09 01:34:34;;;;;;;15.45;11.02;;;;;;;;;;6245030;28;20064;-75
2023/01/09 01:37:38;;;;;;;14.18;9.70;;;;;;;;;;6249412;28;20081;-73
2023/01/09 01:40:40;;;;;;;14.90;9.65;;;;;;;;;;6246730;28;20102;-75
2023/01/09 01:43:49;;;;;;;11.48;8.88;;;;;;;;;;6245920;28;20080;-75
2023/01/09 01:46:52;;;;;;;10.90;7.72;;;;;;;;;;6249333;28;20053;-78
2023/01/09 01:49:55;;;;;;;10.85;7.55;;;;;;;;;;6247002;28;20049;-73
2023/01/09 01:53:03;;;;;;;10.98;7.85;;;;;;;;;;6245177;28;20389;-74
2023/01/09 01:56:08;;;;;;;9.85;7.60;;;;;;;;;;6248349;28;20050;-73
2023/01/09 01:59:13;;;;;;;8.35;6.63;;;;;;;;;;6246933;28;20293;-75
2023/01/09 02:02:15;;;;;;;9.95;6.60;;;;;;;;;;6245359;28;20068;-75
2023/01/09 02:05:17;;;;;;;8.90;6.53;;;;;;;;;;6245423;28;20061;-70
2023/01/09 02:08:20;;;;;;;8.00;5.90;;;;;;;;;;6247015;28;20053;-75
2023/01/09 02:11:22;;;;;;;7.95;5.90;;;;;;;;;;6246081;28;20134;-75
2023/01/09 02:14:26;;;;;;;6.72;5.40;;;;;;;;;;6246169;28;20053;-73
2023/01/09 02:18:00;;;;;;;6.80;5.07;;;;;;;;;;6247499;28;20057;-75
2023/01/09 02:21:06;;;;;;;6.70;5.05;;;;;;;;;;6242954;28;20396;-75
2023/01/09 02:24:17;;;;;;;6.53;5.18;;;;;;;;;;6243940;28;20045;-75
2023/01/09 02:27:49;;;;;;;7.20;5.88;;;;;;;;;;6243448;28;20053;-75
2023/01/09 02:30:57;;;;;;;7.90;6.03;;;;;;;;;;6242894;28;20472;-74
2023/01/09 02:34:03;;;;;;;8.27;5.88;;;;;;;;;;6242877;28;20100;-75
2023/01/09 02:37:08;;;;;;;10.10;7.20;;;;;;;;;;6245685;28;20053;-74
2023/01/09 02:40:18;;;;;;;8.05;6.57;;;;;;;;;;6244922;28;20106;-75
2023/01/09 02:43:20;;;;;;;9.63;6.65;;;;;;;;;;6244994;28;20053;-75
2023/01/09 02:46:23;;;;;;;11.50;7.22;;;;;;;;;;6244315;28;20269;-75
2023/01/09 02:49:25;;;;;;;10.02;7.93;;;;;;;;;;6247216;28;20082;-75
2023/01/09 02:52:34;;;;;;;8.40;6.68;;;;;;;;;;6242237;28;20108;-74
2023/01/09 02:55:47;;;;;;;10.00;6.82;;;;;;;;;;6247959;28;20053;-75
2023/01/09 02:59:09;;;;;;;11.10;7.22;;;;;;;;;;6243146;28;20099;-75
2023/01/09 03:02:24;;;;;;;8.57;5.75;;;;;;;;;;6249420;28;20099;-75
2023/01/09 03:05:29;;;;;;;10.38;6.38;;;;;;;;;;6250744;28;20057;-74
2023/01/09 03:08:34;;;;;;;7.32;5.97;;;;;;;;;;6250991;28;20103;-70
2023/01/09 03:11:40;;;;;;;8.43;6.35;;;;;;;;;;6251765;28;20057;-71
2023/01/09 03:14:45;;;;;;;11.02;6.70;;;;;;;;;;6253840;28;20104;-74
2023/01/09 03:17:50;;;;;;;9.30;6.32;;;;;;;;;;6248646;28;20049;-73
2023/01/09 03:20:54;;;;;;;9.15;6.30;;;;;;;;;;6250411;28;20056;-74
2023/01/09 03:23:57;;;;;;;10.70;6.80;;;;;;;;;;6249031;28;20349;-75
2023/01/09 03:26:59;;;;;;;9.85;6.53;;;;;;;;;;6246186;28;20057;-75
2023/01/09 03:30:00;;;;;;;10.32;7.38;;;;;;;;;;6246613;28;20054;-75
2023/01/09 03:33:04;;;;;;;9.35;7.38;;;;;;;;;;6250956;28;20056;-70
2023/01/09 03:36:06;;;;;;;8.83;6.97;;;;;;;;;;6247442;28;20268;-69
2023/01/09 03:39:08;;;;;;;11.88;7.57;;;;;;;;;;6248991;28;20349;-69
2023/01/09 03:42:09;;;;;;;11.45;7.40;;;;;;;;;;6248622;28;20145;-76
2023/01/09 03:45:11;;;;;;;9.55;7.65;;;;;;;;;;6249700;28;20069;-74
2023/01/09 03:48:14;;;;;;;9.70;7.65;;;;;;;;;;6246383;28;20061;-74
2023/01/09 03:51:16;;;;;;;9.63;7.85;;;;;;;;;;6247457;28;20045;-74
2023/01/09 03:54:18;;;;;;;10.10;7.95;;;;;;;;;;6251774;28;20057;-74
2023/01/09 03:57:19;;;;;;;10.40;8.00;;;;;;;;;;6252172;28;20088;-74
2023/01/09 04:00:21;;;;;;;12.60;8.95;;;;;;;;;;6249533;28;20046;-74
2023/01/09 04:03:24;;;;;;;11.30;8.52;;;;;;;;;;6250187;28;20103;-69
2023/01/09 04:06:26;;;;;;;14.25;10.07;;;;;;;;;;6247477;28;20053;-75
2023/01/09 04:09:28;;;;;;;14.05;10.50;;;;;;;;;;6245477;28;20065;-74
2023/01/09 04:12:29;;;;;;;15.27;10.32;;;;;;;;;;6248127;28;20042;-76
2023/01/09 04:15:31;;;;;;;13.25;9.65;;;;;;;;;;6250852;28;20257;-75
2023/01/09 04:18:34;;;;;;;15.75;10.85;;;;;;;;;;6248751;28;20349;-75
2023/01/09 04:21:36;;;;;;;15.95;11.00;;;;;;;;;;6249338;28;20069;-75
2023/01/09 04:24:37;;;;;;;17.27;12.50;;;;;;;;;;6248930;28;20378;-72
2023/01/09 04:27:39;;;;;;;16.02;11.93;;;;;;;;;;6246965;28;20096;-72
2023/01/09 04:30:41;;;;;;;17.42;12.45;;;;;;;;;;6247444;28;20053;-75
2023/01/09 04:33:44;;;;;;;19.63;12.15;;;;;;;;;;6248116;28;20317;-73
2023/01/09 04:36:45;;;;;;;17.70;11.90;;;;;;;;;;6247203;28;20749;-75
2023/01/09 04:39:48;;;;;;;17.58;11.68;;;;;;;;;;6248690;28;20082;-74
2023/01/09 04:42:50;;;;;;;14.45;11.07;;;;;;;;;;6246643;28;20101;-75
2023/01/09 04:45:51;;;;;;;19.10;12.55;;;;;;;;;;6246144;28;20099;-71
2023/01/09 04:48:54;;;;;;;18.23;12.80;;;;;;;;;;6248473;28;20060;-74
2023/01/09 04:51:56;;;;;;;18.95;13.23;;;;;;;;;;6249878;28;20226;-72
2023/01/09 04:54:58;;;;;;;15.95;12.90;;;;;;;;;;6247708;28;20053;-72
2023/01/09 04:57:59;;;;;;;17.00;13.18;;;;;;;;;;6246041;28;20060;-75
2023/01/09 05:01:01;;;;;;;18.15;12.90;;;;;;;;;;6245076;28;20049;-75
2023/01/09 05:04:05;;;;;;;17.88;13.80;;;;;;;;;;6249086;28;20087;-75
2023/01/09 05:07:07;;;;;;;17.63;12.95;;;;;;;;;;6245006;28;20053;-75
2023/01/09 05:10:10;;;;;;;14.52;11.73;;;;;;;;;;6245149;28;20731;-77
2023/01/09 05:13:12;;;;;;;17.17;11.52;;;;;;;;;;6249506;28;20057;-76
2023/01/09 05:16:13;;;;;;;14.48;11.82;;;;;;;;;;6245763;28;20687;-76
2023/01/09 05:19:16;;;;;;;16.88;11.90;;;;;;;;;;6244164;28;20360;-76
2023/01/09 05:22:18;;;;;;;16.52;12.23;;;;;;;;;;6243178;28;20103;-77
2023/01/09 05:25:20;;;;;;;16.20;12.02;;;;;;;;;;6247287;28;20321;-77
2023/01/09 05:28:21;;;;;;;15.18;11.52;;;;;;;;;;6248850;28;20054;-76
2023/01/09 05:31:24;;;;;;;14.50;11.35;;;;;;;;;;6244837;28;20053;-77
2023/01/09 05:34:27;;;;;;;14.70;10.98;;;;;;;;;;6245154;28;20103;-73
2023/01/09 05:37:29;;;;;;;12.73;10.65;;;;;;;;;;6248929;28;20060;-76
2023/01/09 05:40:31;;;;;;;15.57;11.07;;;;;;;;;;6244502;28;20065;-76
2023/01/09 05:43:32;;;;;;;16.60;11.85;;;;;;;;;;6246103;28;20053;-73
2023/01/09 05:46:34;;;;;;;17.85;12.35;;;;;;;;;;6247588;28;20073;-78
2023/01/09 05:49:37;;;;;;;16.58;12.52;;;;;;;;;;6247623;28;20044;-76
2023/01/09 05:52:39;;;;;;;15.45;11.98;;;;;;;;;;6248703;28;20151;-74
2023/01/09 05:55:40;;;;;;;16.52;12.23;;;;;;;;;;6245700;28;20095;-76
2023/01/09 05:58:42;;;;;;;14.95;11.40;;;;;;;;;;6245779;28;20049;-73
2023/01/09 06:01:44;;;;;;;14.27;11.70;;;;;;;;;;6247683;28;20057;-73
2023/01/09 06:04:48;;;;;;;14.73;10.70;;;;;;;;;;6244259;28;20063;-74
2023/01/09 06:07:50;;;;;;;15.43;11.05;;;;;;;;;;6250244;28;20053;-74
2023/01/09 06:10:51;;;;;;;16.15;11.75;;;;;;;;;;6242492;28;20061;-80
2023/01/09 06:13:53;;;;;;;17.13;12.15;;;;;;;;;;6242918;28;20104;-78
2023/01/09 06:16:54;;;;;;;14.70;11.30;;;;;;;;;;6241823;28;20053;-77
2023/01/09 06:19:58;;;;;;;15.77;10.80;;;;;;;;;;6247034;28;20042;-75
2023/01/09 06:22:59;;;;;;;14.07;10.88;;;;;;;;;;6244750;28;20053;-73
2023/01/09 06:26:01;;;;;;;14.02;10.18;;;;;;;;;;6245982;28;20230;-75
2023/01/09 06:29:03;;;;;;;16.52;11.10;;;;;;;;;;6243891;28;20061;-75
2023/01/09 06:32:05;;;;;;;18.50;12.27;;;;;;;;;;6245345;28;20111;-74
2023/01/09 06:35:09;;;;;;;18.23;11.25;;;;;;;;;;6246495;28;20099;-76
2023/01/09 06:38:11;;;;;;;15.10;10.98;;;;;;;;;;6242647;28;20049;-77
2023/01/09 06:41:12;;;;;;;17.00;11.45;;;;;;;;;;6243261;28;20131;-77
2023/01/09 06:44:14;;;;;;;16.70;11.68;;;;;;;;;;6245161;28;20084;-80
2023/01/09 06:47:16;;;;;;;15.27;11.00;;;;;;;;;;6244401;28;20046;-80
2023/01/09 06:50:19;;;;;;;15.73;11.10;;;;;;;;;;6246629;28;20091;-77
2023/01/09 06:53:21;;;;;;;16.35;10.55;;;;;;;;;;6245197;28;20061;-76
2023/01/09 06:56:23;;;;;;;14.10;10.25;;;;;;;;;;6244805;28;20082;-77
2023/01/09 06:59:25;;;;;;;13.48;9.75;;;;;;;;;;6243673;28;20045;-76
2023/01/09 07:02:26;;;;;;;16.45;10.98;;;;;;;;;;6243428;28;20068;-75
2023/01/09 07:05:30;;;;;;;14.57;11.35;;;;;;;;;;6244511;28;20051;-77
2023/01/09 07:08:33;;;;;;;14.97;10.90;;;;;;;;;;6245832;28;20069;-79
2023/01/09 07:11:34;;;;;;;13.68;9.90;;;;;;;;;;6245160;28;20124;-79
2023/01/09 07:14:36;;;;;;;12.38;9.88;;;;;;;;;;6242708;28;20049;-76
2023/01/09 07:17:37;;;;;;;14.10;9.98;;;;;;;;;;6244488;28;20069;-79
2023/01/09 07:20:41;;;;;;;16.23;11.15;;;;;;;;;;6244365;28;20050;-80
2023/01/09 07:23:42;;;;;;;12.93;10.35;;;;;;;;;;6245282;28;20337;-79
2023/01/09 07:26:44;;;;;;;13.73;10.63;;;;;;;;;;6243127;28;20091;-80
2023/01/09 07:29:46;;;;;;;16.48;10.98;;;;;;;;;;6244278;28;20050;-79
2023/01/09 07:32:47;;;;;;;14.80;10.77;;;;;;;;;;6244974;28;20058;-76
2023/01/09 07:35:52;;;;;;;14.73;11.20;;;;;;;;;;6245596;28;20281;-79
2023/01/09 07:38:53;;;;;;;;;;;;;;;;;;6243375;28;20084;-79
2023/01/09 07:41:55;;;;;;;15.27;10.93;;;;;;;;;;6244492;28;19917;-78
2023/01/09 07:44:57;;;;;;;15.07;11.18;;;;;;;;;;6246473;28;20045;-73
2023/01/09 07:47:58;;;;;;;14.40;11.30;;;;;;;;;;6250017;28;20048;-79
2023/01/09 07:51:01;;;;;;;14.80;10.93;;;;;;;;;;6248858;28;20109;-77
2023/01/09 07:54:03;;;;;;;15.77;11.98;;;;;;;;;;6249345;28;20337;-80
2023/01/09 07:57:05;;;;;;;17.75;12.70;;;;;;;;;;6248328;28;20100;-79
2023/01/09 08:00:09;;;;;;;17.58;12.20;;;;;;;;;;6249358;28;20104;-80
2023/01/09 08:03:11;;;;;;;17.33;12.25;;;;;;;;;;6248769;28;20064;-79
2023/01/09 08:06:14;;;;;;;15.13;11.15;;;;;;;;;;6248029;28;20293;-78
2023/01/09 08:09:16;;;;;;;17.73;12.05;;;;;;;;;;6251168;28;20280;-71
2023/01/09 08:12:17;;;;;;;17.58;11.48;;;;;;;;;;6249303;28;20092;-76
2023/01/09 08:15:19;;;;;;;15.52;11.68;;;;;;;;;;6248414;28;20411;-69
2023/01/09 08:18:21;;;;;;;17.05;11.75;;;;;;;;;;6251619;28;20360;-77
2023/01/09 08:21:24;;;;;;;15.75;11.45;;;;;;;;;;6247955;28;20057;-79
2023/01/09 08:24:26;;;;;;;19.80;12.05;;;;;;;;;;6249359;28;20166;-79
2023/01/09 08:27:27;;;;;;;18.48;12.38;;;;;;;;;;6248054;28;20048;-79
2023/01/09 08:30:29;;;;;;;18.95;12.15;;;;;;;;;;6248686;28;20061;-80
2023/01/09 08:33:31;;;;;;;16.83;12.10;;;;;;;;;;6248994;28;20577;-81
2023/01/09 08:36:34;;;;;;;18.20;12.65;;;;;;;;;;6246917;28;20341;-80
2023/01/09 08:39:35;;;;;;;16.98;12.45;;;;;;;;;;6249252;28;20332;-73
2023/01/09 08:49:15;;;;;;;14.80;10.85;;;;;;;;;;6248441;28;20067;-80
2023/01/09 08:52:18;;;;;;;14.35;10.02;;;;;;;;;;6249275;28;20058;-81
2023/01/09 08:55:20;;;;;;;14.00;10.45;;;;;;;;;;6249913;28;20061;-76
2023/01/09 08:58:21;;;;;;;14.80;11.00;;;;;;;;;;6247655;28;20057;-80
2023/01/09 09:01:23;;;;;;;13.90;9.93;;;;;;;;;;6247942;28;20107;-78
2023/01/09 09:04:25;;;;;;;14.27;9.38;;;;;;;;;;6250413;28;20350;-79
2023/01/09 09:07:28;;;;;;;11.52;8.63;;;;;;;;;;6249384;28;20045;-78
2023/01/09 09:10:30;;;;;;;11.80;8.93;;;;;;;;;;6249992;28;20049;-79
2023/01/09 09:13:31;;;;;;;11.27;8.32;;;;;;;;;;6249310;28;20578;-79
2023/01/09 09:16:33;;;;;;;10.93;8.82;;;;;;;;;;6247004;28;20096;-79
2023/01/09 09:19:35;;;;;;;11.68;7.70;;;;;;;;;;6249228;28;20057;-79
2023/01/09 09:22:38;;;;;;;12.18;7.50;;;;;;;;;;6246059;28;20049;-79
2023/01/09 09:25:40;;;;;;;9.77;7.30;;;;;;;;;;6247180;28;20398;-76
2023/01/09 09:28:41;;;;;;;10.82;7.47;;;;;;;;;;6248879;28;20111;-78
2023/01/09 09:31:43;;;;;;;12.15;7.93;;;;;;;;;;6249713;28;20329;-75
2023/01/09 09:34:45;;;;;;;11.48;7.30;;;;;;;;;;6247854;28;20916;-78
2023/01/09 09:37:55;;;;;;;9.52;7.57;;;;;;;;;;6245957;28;20049;-79
2023/01/09 09:44:41;;;;;;;10.15;7.45;;;;;;;;;;6247015;28;20264;-77
2023/01/09 09:44:49;;;;;;;7.75;5.88;;;;;;;;;;6248257;28;20220;-79
2023/01/09 09:47:59;;;;;;;10.10;6.60;;;;;;;;;;6247611;28;20056;-78
2023/01/09 09:51:25;;;;;;;9.43;6.28;;;;;;;;;;6247736;28;20673;-79
2023/01/09 09:54:33;;;;;;;12.68;6.07;;;;;;;;;;6246113;28;20065;-78
2023/01/09 09:57:36;;;;;;;8.77;6.53;;;;;;;;;;6243971;28;20057;-79
2023/01/09 10:00:38;;;;;;;8.45;6.50;;;;;;;;;;6248076;28;20360;-79
2023/01/09 10:03:42;;;;;;;11.60;6.13;;;;;;;;;;6245603;28;20064;-72
2023/01/09 10:06:46;;;;;;;11.82;6.93;;;;;;;;;;6247248;28;20060;-78
2023/01/09 10:09:53;;;;;;;8.57;6.88;;;;;;;;;;6250707;28;20103;-75
2023/01/09 10:12:56;;;;;;;11.15;6.95;;;;;;;;;;6247421;28;20055;-79
2023/01/09 10:16:02;;;;;;;11.70;6.77;;;;;;;;;;6246898;28;20091;-79
2023/01/09 10:19:15;;;;;;;10.68;7.20;;;;;;;;;;6246720;28;20898;-79
2023/01/09 10:22:21;;;;;;;10.20;6.57;;;;;;;;;;6249168;28;20049;-78
2023/01/09 10:25:31;;;;;;;9.93;6.53;;;;;;;;;;6247314;28;20044;-79
2023/01/09 10:28:53;;;;;;;6.93;5.32;;;;;;;;;;6249355;28;20053;-80
2023/01/09 10:32:04;;;;;;;11.85;5.13;;;;;;;;;;6243876;28;20049;-81
2023/01/09 10:35:26;;;;;;;9.00;6.05;;;;;;;;;;6244806;28;20053;-79
2023/01/09 10:38:31;;;;;;;10.68;5.00;;;;;;;;;;6248967;28;20069;-79
2023/01/09 10:41:38;;;;;;;7.32;5.15;;;;;;;;;;6246821;28;20056;-79
2023/01/09 10:44:43;;;;;;;18.10;3.95;;;;;;;;;;6219876;28;20076;-79
2023/01/09 10:47:45;;;;;;;4.90;3.80;;;;;;;;;;6245299;28;20092;-79
2023/01/09 10:50:48;;;;;;;4.55;3.55;;;;;;;;;;6221692;28;20053;-78
2023/01/09 10:53:52;;;;;;;5.10;4.00;;;;;;;;;;6249457;28;20274;-78
2023/01/09 10:56:57;;;;;;;8.63;4.20;;;;;;;;;;6244412;28;20056;-79
2023/01/09 10:59:59;;;;;;;4.90;4.03;;;;;;;;;;6245181;28;20328;-79
2023/01/09 11:03:00;;;;;;;6.60;4.22;;;;;;;;;;6247334;28;20058;-79
2023/01/09 11:06:03;;;;;;;5.38;4.22;;;;;;;;;;6247124;28;20058;-79
2023/01/09 11:09:06;;;;;;;6.45;4.78;;;;;;;;;;6245288;28;20049;-76
2023/01/09 11:12:24;;;;;;;5.65;4.53;;;;;;;;;;6248136;28;20057;-78
2023/01/09 11:15:30;;;;;;;9.15;4.70;;;;;;;;;;6244446;28;20314;-78
2023/01/09 11:18:33;;;;;;;5.82;4.07;;;;;;;;;;6247070;28;20054;-78
2023/01/09 11:21:38;;;;;;;8.70;5.13;;;;;;;;;;6245936;28;20056;-77
2023/01/09 11:24:39;;;;;;;10.48;4.90;;;;;;;;;;6254405;28;20057;-79
2023/01/09 11:27:42;;;;;;;9.60;4.53;;;;;;;;;;6246546;28;20322;-79
2023/01/09 11:30:52;;;;;;;5.80;5.00;;;;;;;;;;6250849;28;20061;-77
2023/01/09 11:33:54;;;;;;;9.70;6.57;;;;;;;;;;6250119;28;20053;-77
2023/01/09 11:37:03;;;;;;;12.52;7.72;;;;;;;;;;6250467;28;20080;-81
2023/01/09 11:40:06;;;;;;;11.25;8.10;;;;;;;;;;6253306;28;20053;-79
2023/01/09 11:43:19;;;;;;;12.07;8.50;;;;;;;;;;6247522;28;20128;-76
2023/01/09 11:46:36;;;;;;;12.35;9.23;;;;;;;;;;6251197;28;20317;-76
2023/01/09 11:49:37;;;;;;;14.00;8.98;;;;;;;;;;6251298;28;20288;-75
2023/01/09 11:52:39;;;;;;;11.93;9.10;;;;;;;;;;6252006;28;20065;-79
2023/01/09 11:55:42;;;;;;;14.43;10.13;;;;;;;;;;6249521;28;20273;-69
2023/01/09 11:58:45;;;;;;;21.70;13.98;;;;;;;;;;6252527;28;20061;-79
2023/01/09 12:02:01;;;;;;;13.77;10.50;;;;;;;;;;6248626;28;21270;-78
2023/01/09 12:05:12;;;;;;;15.23;10.60;;;;;;;;;;6249059;28;20459;-72
2023/01/09 12:08:21;;;;;;;14.60;10.57;;;;;;;;;;6249554;28;20061;-81
2023/01/09 12:11:29;;;;;;;23.77;15.20;;;;;;;;;;6251104;28;20054;-76
2023/01/09 12:14:42;;;;;;;15.43;10.38;;;;;;;;;;6248748;28;20050;-73
2023/01/09 12:17:56;;;;;;;24.23;15.60;;;;;;;;;;6252191;28;20059;-80
2023/01/09 12:21:14;;;;;;;34.85;19.73;;;;;;;;;;6250973;28;20065;-77
2023/01/09 12:24:34;;;;;;;15.23;10.75;;;;;;;;;;6248367;28;20051;-73
2023/01/09 12:27:49;;;;;;;17.08;10.77;;;;;;;;;;6250277;28;20067;-76
2023/01/09 12:31:01;;;;;;;17.10;11.43;;;;;;;;;;6250295;28;20061;-76
2023/01/09 12:34:15;;;;;;;17.27;10.55;;;;;;;;;;6249973;28;20046;-76
2023/01/09 12:37:35;;;;;;;18.58;11.88;;;;;;;;;;6246448;28;20041;-72
2023/01/09 12:40:52;;;;;;;18.20;10.93;;;;;;;;;;6248396;28;20053;-76
2023/01/09 12:44:04;;;;;;;17.90;11.60;;;;;;;;;;6247524;28;20080;-74
2023/01/09 12:47:21;;;;;;;18.60;11.52;;;;;;;;;;6246222;28;20060;-77
2023/01/09 12:50:39;;;;;;;15.50;10.55;;;;;;;;;;6248552;28;20395;-77
2023/01/09 12:53:43;;;;;;;18.08;11.05;;;;;;;;;;6247849;28;20452;-77
2023/01/09 12:56:48;;;;;;;16.65;11.38;;;;;;;;;;6247650;28;20392;-74
2023/01/09 12:59:53;;;;;;;17.80;11.18;;;;;;;;;;6249550;28;20313;-74
2023/01/09 13:02:59;;;;;;;16.88;11.32;;;;;;;;;;6248922;28;20072;-75
2023/01/09 13:06:03;;;;;;;16.08;10.90;;;;;;;;;;6246824;28;21172;-74
2023/01/09 13:09:15;;;;;;;18.30;11.68;;;;;;;;;;6249247;28;20071;-74
2023/01/09 13:12:20;;;;;;;17.23;11.13;;;;;;;;;;6248780;28;20053;-76
2023/01/09 13:15:28;;;;;;;28.25;12.20;;;;;;;;;;6249222;28;20057;-78
2023/01/09 13:18:39;;;;;;;17.85;10.73;;;;;;;;;;6247743;28;20763;-76
2023/01/09 13:21:41;;;;;;;15.50;10.55;;;;;;;;;;6247560;28;20060;-76
2023/01/09 13:24:56;;;;;;;16.80;10.52;;;;;;;;;;6248443;28;20050;-68
2023/01/09 13:28:01;;;;;;;14.25;9.85;;;;;;;;;;6250011;28;20041;-75
2023/01/09 13:31:15;;;;;;;15.82;10.30;;;;;;;;;;6248585;28;20056;-77
2023/01/09 13:34:19;;;;;;;15.05;10.07;;;;;;;;;;6249263;28;20049;-77
2023/01/09 13:37:23;;;;;;;15.95;9.60;;;;;;;;;;6246555;28;20041;-76
2023/01/09 13:40:31;;;;;;;12.05;8.63;;;;;;;;;;6248469;28;20067;-76
2023/01/09 13:43:54;;;;;;;12.48;8.68;;;;;;;;;;6248072;28;20396;-76
2023/01/09 13:46:58;;;;;;;13.98;8.65;;;;;;;;;;6245791;28;20048;-75
2023/01/09 13:50:21;;;;;;;11.45;8.23;;;;;;;;;;6247880;28;20072;-75
2023/01/09 13:53:42;;;;;;;12.30;8.93;;;;;;;;;;6246204;28;20384;-74
2023/01/09 13:57:21;;;;;;;11.82;8.23;;;;;;;;;;6246789;28;20045;-76
2023/01/09 14:01:02;;;;;;;9.68;7.05;;;;;;;;;;6247755;28;20057;-75
2023/01/09 14:04:43;;;;;;;12.65;7.80;;;;;;;;;;6244450;28;20069;-73
2023/01/09 14:07:48;;;;;;;9.77;7.35;;;;;;;;;;6249383;28;20104;-74
2023/01/09 14:10:51;;;;;;;11.05;7.85;;;;;;;;;;6248114;28;20237;-76
2023/01/09 14:14:01;;;;;;;11.85;7.45;;;;;;;;;;6247659;28;20310;-74
2023/01/09 14:17:16;;;;;;;10.90;7.45;;;;;;;;;;6247015;28;20360;-76
2023/01/09 14:20:25;;;;;;;9.75;6.78;;;;;;;;;;6247929;28;20095;-74
2023/01/09 14:23:31;;;;;;;12.55;7.43;;;;;;;;;;6244180;28;20079;-75
2023/01/09 14:26:43;;;;;;;9.55;7.03;;;;;;;;;;6244467;28;20049;-75
2023/01/09 14:29:47;;;;;;;10.40;6.88;;;;;;;;;;6245757;28;20099;-74
2023/01/09 14:32:56;;;;;;;9.85;6.50;;;;;;;;;;6250703;28;20109;-69
2023/01/09 14:36:13;;;;;;;9.85;6.72;;;;;;;;;;6242494;28;20264;-69
2023/01/09 14:39:16;;;;;;;10.68;6.65;;;;;;;;;;6249528;28;20053;-74
2023/01/09 14:42:21;;;;;;;9.70;6.60;;;;;;;;;;6243855;28;20049;-75
2023/01/09 14:45:25;;;;;;;11.20;7.03;;;;;;;;;;6246659;28;20068;-75
2023/01/09 14:48:26;;;;;;;11.55;7.95;;;;;;;;;;6251491;28;20057;-75
2023/01/09 14:51:29;;;;;;;13.98;7.97;;;;;;;;;;6248183;28;20171;-74
2023/01/09 14:54:34;;;;;;;11.63;8.07;;;;;;;;;;6247329;28;20052;-76
2023/01/09 14:57:36;;;;;;;10.95;7.65;;;;;;;;;;6249996;28;20050;-75
2023/01/09 15:00:47;;;;;;;11.45;7.13;;;;;;;;;;6252048;28;20057;-75
2023/01/09 15:03:50;;;;;;;10.57;7.72;;;;;;;;;;6254493;28;20046;-74
2023/01/09 15:06:52;;;;;;;11.95;7.43;;;;;;;;;;6253348;28;20302;-71
2023/01/09 15:10:00;;;;;;;10.93;7.78;;;;;;;;;;6250544;28;20054;-74
2023/01/09 15:13:03;;;;;;;11.10;7.57;;;;;;;;;;6256801;28;20110;-73
2023/01/09 15:16:06;;;;;;;11.60;8.13;;;;;;;;;;6250132;28;20052;-75
2023/01/09 15:19:08;;;;;;;13.70;8.00;;;;;;;;;;6254247;28;20066;-75
2023/01/09 15:22:21;;;;;;;11.98;8.30;;;;;;;;;;6247848;28;20233;-75
2023/01/09 15:25:27;;;;;;;11.68;8.02;;;;;;;;;;6251114;28;20060;-73
2023/01/09 15:28:30;;;;;;;12.40;8.15;;;;;;;;;;6249773;28;20045;-75
2023/01/09 15:31:32;;;;;;;14.55;8.38;;;;;;;;;;6250436;28;20442;-74
2023/01/09 15:34:34;;;;;;;14.43;9.18;;;;;;;;;;6252531;28;20049;-74
2023/01/09 15:37:37;;;;;;;14.80;8.73;;;;;;;;;;6250346;28;20059;-72
2023/01/09 15:40:40;;;;;;;11.98;8.85;;;;;;;;;;6250261;28;20054;-75
2023/01/09 15:43:43;;;;;;;15.60;9.57;;;;;;;;;;6248312;28;20045;-73
2023/01/09 15:46:48;;;;;;;30.02;17.90;;;;;;;;;;6251188;28;20054;-74
2023/01/09 15:49:50;;;;;;;19.77;12.15;;;;;;;;;;6251806;28;20052;-77
2023/01/09 15:52:53;;;;;;;37.85;17.50;;;;;;;;;;6249440;28;20067;-73
2023/01/09 15:56:18;;;;;;;24.67;14.02;;;;;;;;;;6252166;28;20053;-75
2023/01/09 15:59:25;;;;;;;44.25;21.92;;;;;;;;;;6249364;28;20052;-75
2023/01/09 16:05:49;;;;;;;31.30;18.50;;;;;;;;;;6251846;28;20080;-77
2023/01/09 16:08:52;;;;;;;;;;;;;;;;;;6248867;28;20361;-77
2023/01/09 16:11:57;;;;;;;20.65;11.18;;;;;;;;;;6251882;28;20200;-75
2023/01/09 16:15:00;;;;;;;16.33;10.30;;;;;;;;;;6247269;28;20087;-77
2023/01/09 16:18:06;;;;;;;15.75;9.57;;;;;;;;;;6250389;28;20052;-77
2023/01/09 16:21:33;;;;;;;15.90;9.65;;;;;;;;;;6246354;28;20045;-70
2023/01/09 16:24:39;;;;;;;15.75;10.27;;;;;;;;;;6248491;28;20113;-77
2023/01/09 16:27:42;;;;;;;13.77;9.57;;;;;;;;;;6249384;28;20649;-77
2023/01/09 16:30:51;;;;;;;16.17;10.40;;;;;;;;;;6251077;28;20244;-74
2023/01/09 16:33:58;;;;;;;16.40;10.43;;;;;;;;;;6249455;28;20041;-75
2023/01/09 16:37:01;;;;;;;14.65;9.88;;;;;;;;;;6248175;28;20049;-74
2023/01/09 16:40:22;;;;;;;15.65;10.13;;;;;;;;;;6247595;28;20053;-76
2023/01/09 16:43:24;;;;;;;15.15;9.75;;;;;;;;;;6246614;28;20053;-76
2023/01/09 16:46:28;;;;;;;13.57;9.10;;;;;;;;;;6247064;28;20100;-78
2023/01/09 16:49:30;;;;;;;17.42;10.38;;;;;;;;;;6250291;28;20044;-75
2023/01/09 16:52:31;;;;;;;15.70;9.57;;;;;;;;;;6245311;28;20061;-76
2023/01/09 16:55:33;;;;;;;15.63;9.38;;;;;;;;;;6247508;28;20060;-74
2023/01/09 16:58:36;;;;;;;16.00;9.10;;;;;;;;;;6247271;28;20368;-74
2023/01/09 17:01:39;;;;;;;13.85;9.13;;;;;;;;;;6249884;28;20107;-76
2023/01/09 17:04:40;;;;;;;13.95;8.98;;;;;;;;;;6249273;28;20365;-75
2023/01/09 17:07:42;;;;;;;14.55;8.77;;;;;;;;;;6246398;28;20240;-72
2023/01/09 17:10:44;;;;;;;12.77;8.43;;;;;;;;;;6249546;28;20046;-71
2023/01/09 17:13:47;;;;;;;14.18;8.70;;;;;;;;;;6244704;28;20076;-75
2023/01/09 17:16:49;;;;;;;13.00;8.32;;;;;;;;;;6248719;28;20112;-77
2023/01/09 17:19:50;;;;;;;13.80;8.63;;;;;;;;;;6245725;28;20053;-70
2023/01/09 17:22:52;;;;;;;15.63;8.80;;;;;;;;;;6247928;28;20273;-76
2023/01/09 17:29:17;;;;;;;13.20;8.20;;;;;;;;;;6245129;28;20050;-78
2023/01/09 17:32:19;;;;;;;14.50;8.55;;;;;;;;;;6249498;28;20064;-79
2023/01/09 17:35:21;;;;;;;11.23;8.20;;;;;;;;;;6246183;28;20046;-77
2023/01/09 17:38:23;;;;;;;12.30;8.27;;;;;;;;;;6246356;28;20404;-77
2023/01/09 17:41:26;;;;;;;13.98;7.75;;;;;;;;;;6245895;28;20061;-78
2023/01/09 17:44:31;;;;;;;11.07;6.85;;;;;;;;;;6247908;28;20050;-75
2023/01/09 17:47:33;;;;;;;7.70;5.60;;;;;;;;;;6245753;28;20125;-77
2023/01/09 17:50:35;;;;;;;12.63;6.05;;;;;;;;;;6249279;28;20318;-75
2023/01/09 17:53:37;;;;;;;8.55;6.00;;;;;;;;;;6246947;28;20057;-77
2023/01/09 17:56:41;;;;;;;9.63;5.93;;;;;;;;;;6245184;28;20060;-71
2023/01/09 17:59:45;;;;;;;9.82;5.40;;;;;;;;;;6243434;28;20086;-73
2023/01/09 18:02:47;;;;;;;9.07;5.75;;;;;;;;;;6248672;28;20180;-77
2023/01/09 18:05:49;;;;;;;8.13;5.00;;;;;;;;;;6245480;28;20118;-75
2023/01/09 18:08:51;;;;;;;8.55;4.97;;;;;;;;;;6248105;28;20057;-76
2023/01/09 18:11:55;;;;;;;7.67;4.73;;;;;;;;;;6246122;28;20369;-74
2023/01/09 18:14:58;;;;;;;7.57;4.55;;;;;;;;;;6241187;28;20061;-69
2023/01/09 18:18:01;;;;;;;8.52;4.80;;;;;;;;;;6244835;28;20053;-78
2023/01/09 18:21:04;;;;;;;6.70;4.22;;;;;;;;;;6246914;28;20061;-73
2023/01/09 18:24:08;;;;;;;6.97;4.47;;;;;;;;;;6243552;28;20075;-75